Kenny, Argentina
Current Conditions -  °F | °C
As of 9:00 AM on Friday 28 Nov 2014 (Local Time) from SADF Reporting Station
Clear Clear  
Wind Chill: 73°   Ceiling: Unl
Heat Index: 73°   Visibility: 6mi
Dew Point: 52°   Wind: 12mph
Humidity: 47%   Direction: 360°N
Pressure: 30.06"   Gusts: NA
Location:  34.37°S, 60.01°W
Report Text: SADF 281200Z 36010KT CAVOK 23/11 Q1018
Loading
Personal Weather Stations






























Interactive Weather Map New forecast layout! Learn more

10-Day Weather Forecast

Advertisements
Track Severe Weather on mobile